Time;durP1;ratioP1;P1;durP2;ratioP2;P2;SDS_P1;SDS_P2;PMS_P1;PMS_P2;Temp;Humidity;BMP_temperature;BMP_pressure;BME280_temperature;BME280_humidity;BME280_pressure;Samples;Min_cycle;Max_cycle;Signal;HPM_P1;HPM_P2
2022/05/09 00:01:48;;;;;;;369.37;107.03;;;;;;;;;;5057377;28;20497;-70
2022/05/09 00:04:16;;;;;;;366.77;100.40;;;;;;;;;;5056583;28;20721;-70
2022/05/09 00:06:45;;;;;;;363.57;98.47;;;;;;;;;;5056625;28;20465;-70
2022/05/09 00:09:14;;;;;;;380.80;100.63;;;;;;;;;;5057456;28;20461;-70
2022/05/09 00:11:42;;;;;;;369.20;100.97;;;;;;;;;;5056900;28;20738;-71
2022/05/09 00:14:10;;;;;;;376.90;105.00;;;;;;;;;;5057908;28;20461;-71
2022/05/09 00:16:38;;;;;;;368.60;102.40;;;;;;;;;;5057774;28;20485;-70
2022/05/09 00:19:17;;;;;;;366.50;98.57;;;;;;;;;;5056962;28;20489;-70
2022/05/09 00:21:46;;;;;;;375.73;104.77;;;;;;;;;;5057204;28;20554;-70
2022/05/09 00:24:17;;;;;;;365.57;99.17;;;;;;;;;;5056737;28;20996;-70
2022/05/09 00:26:45;;;;;;;371.10;98.53;;;;;;;;;;5055803;28;20486;-70
2022/05/09 00:29:14;;;;;;;371.73;104.37;;;;;;;;;;5056725;28;20470;-70
2022/05/09 00:31:43;;;;;;;373.07;104.97;;;;;;;;;;5056411;28;20457;-70
2022/05/09 00:34:11;;;;;;;340.63;95.97;;;;;;;;;;5056818;28;20473;-70
2022/05/09 00:36:39;;;;;;;374.27;100.80;;;;;;;;;;5056808;28;20461;-70
2022/05/09 00:39:08;;;;;;;369.60;100.20;;;;;;;;;;5057156;28;20556;-70
2022/05/09 00:41:37;;;;;;;370.60;101.37;;;;;;;;;;5056658;28;20457;-70
2022/05/09 00:44:07;;;;;;;365.30;94.70;;;;;;;;;;5054242;28;20489;-70
2022/05/09 00:46:35;;;;;;;372.47;101.83;;;;;;;;;;5056170;28;20485;-70
2022/05/09 00:49:08;;;;;;;364.70;98.10;;;;;;;;;;5056223;28;20474;-71
2022/05/09 00:51:37;;;;;;;357.23;97.47;;;;;;;;;;5056754;28;20462;-71
2022/05/09 00:54:05;;;;;;;359.27;103.60;;;;;;;;;;5056416;28;20480;-70
2022/05/09 00:56:37;;;;;;;365.00;97.30;;;;;;;;;;5056634;28;20473;-70
2022/05/09 00:59:10;;;;;;;365.77;97.47;;;;;;;;;;5056318;28;20570;-70
2022/05/09 01:01:38;;;;;;;373.87;100.57;;;;;;;;;;5055921;28;20463;-70
2022/05/09 01:04:09;;;;;;;370.47;96.60;;;;;;;;;;5056227;28;20485;-70
2022/05/09 01:06:40;;;;;;;364.07;103.73;;;;;;;;;;5056113;28;20853;-70
2022/05/09 01:09:11;;;;;;;322.20;93.83;;;;;;;;;;5056649;28;20753;-70
2022/05/09 01:11:39;;;;;;;323.70;97.77;;;;;;;;;;5036504;28;20466;-70
2022/05/09 01:14:12;;;;;;;359.73;100.50;;;;;;;;;;5036329;28;20807;-70
2022/05/09 01:16:40;;;;;;;357.67;98.60;;;;;;;;;;5036152;28;20464;-70
2022/05/09 01:19:14;;;;;;;366.23;98.70;;;;;;;;;;5036304;28;20455;-70
2022/05/09 01:21:47;;;;;;;360.67;92.50;;;;;;;;;;5035846;28;20548;-70
2022/05/09 01:24:16;;;;;;;366.63;99.23;;;;;;;;;;5036414;28;20450;-70
2022/05/09 01:26:44;;;;;;;357.97;91.93;;;;;;;;;;5036153;28;20489;-70
2022/05/09 01:29:16;;;;;;;337.43;101.27;;;;;;;;;;5038371;28;20548;-70
2022/05/09 01:31:46;;;;;;;363.40;93.60;;;;;;;;;;5055796;28;20461;-70
2022/05/09 01:34:15;;;;;;;354.37;90.43;;;;;;;;;;5055640;28;20473;-70
2022/05/09 01:36:46;;;;;;;342.87;91.43;;;;;;;;;;5055573;28;20465;-70
2022/05/09 01:39:14;;;;;;;345.13;95.00;;;;;;;;;;5055217;28;20453;-70
2022/05/09 01:41:43;;;;;;;361.53;95.53;;;;;;;;;;5055998;28;20940;-70
2022/05/09 01:44:11;;;;;;;367.40;94.93;;;;;;;;;;5055711;28;20504;-71
2022/05/09 01:49:29;;;;;;;359.50;95.73;;;;;;;;;;5055533;28;20461;-70
2022/05/09 01:49:30;;;;;;;356.27;95.93;;;;;;;;;;5055544;28;20450;-71
2022/05/09 01:52:00;;;;;;;361.13;91.97;;;;;;;;;;5056305;28;20509;-70
2022/05/09 01:54:28;;;;;;;352.27;89.20;;;;;;;;;;5055099;28;20468;-70
2022/05/09 01:56:55;;;;;;;356.87;90.90;;;;;;;;;;5056002;28;20501;-70
2022/05/09 01:59:24;;;;;;;354.50;87.93;;;;;;;;;;5055498;28;20458;-70
2022/05/09 02:01:56;;;;;;;355.00;90.90;;;;;;;;;;5055547;28;20470;-70
2022/05/09 02:04:24;;;;;;;367.40;99.83;;;;;;;;;;5055294;28;20481;-70
2022/05/09 02:06:52;;;;;;;355.70;93.70;;;;;;;;;;5055551;28;20470;-70
2022/05/09 02:09:25;;;;;;;358.60;92.83;;;;;;;;;;5055575;28;20454;-70
2022/05/09 02:11:53;;;;;;;365.20;99.97;;;;;;;;;;5055163;28;20745;-70
2022/05/09 02:14:21;;;;;;;346.73;90.10;;;;;;;;;;5055345;28;20523;-70
2022/05/09 02:16:49;;;;;;;361.97;96.93;;;;;;;;;;5055430;28;20471;-70
2022/05/09 02:19:17;;;;;;;360.50;91.67;;;;;;;;;;5055292;28;20458;-70
2022/05/09 02:21:44;;;;;;;366.00;96.03;;;;;;;;;;5055009;28;20515;-70
2022/05/09 02:24:15;;;;;;;367.27;92.70;;;;;;;;;;5054936;28;20583;-70
2022/05/09 02:26:44;;;;;;;353.17;95.00;;;;;;;;;;5055070;28;20461;-71
2022/05/09 02:29:12;;;;;;;364.87;96.93;;;;;;;;;;5054839;28;20457;-70
2022/05/09 02:31:40;;;;;;;363.40;96.50;;;;;;;;;;5054892;28;20461;-70
2022/05/09 02:34:11;;;;;;;361.93;90.83;;;;;;;;;;5054959;28;20468;-70
2022/05/09 02:36:38;;;;;;;352.83;90.73;;;;;;;;;;5054439;28;20905;-70
2022/05/09 02:39:07;;;;;;;367.00;91.73;;;;;;;;;;5038264;28;20493;-70
2022/05/09 02:41:34;;;;;;;358.00;94.20;;;;;;;;;;5054218;28;20526;-70
2022/05/09 02:44:04;;;;;;;358.93;96.80;;;;;;;;;;5054717;28;20901;-70
2022/05/09 02:46:32;;;;;;;356.50;90.03;;;;;;;;;;5054852;28;20492;-70
2022/05/09 02:49:02;;;;;;;344.37;96.00;;;;;;;;;;5055049;28;20458;-70
2022/05/09 02:51:30;;;;;;;332.13;88.67;;;;;;;;;;5057718;28;20941;-70
2022/05/09 02:53:58;;;;;;;360.07;94.37;;;;;;;;;;5058451;28;20461;-70
2022/05/09 02:56:26;;;;;;;360.50;92.40;;;;;;;;;;5058579;28;20475;-70
2022/05/09 02:58:54;;;;;;;356.37;89.33;;;;;;;;;;5058326;28;20964;-70
2022/05/09 03:01:24;;;;;;;361.20;90.37;;;;;;;;;;5056587;28;20454;-70
2022/05/09 03:06:36;;;;;;;360.37;90.07;;;;;;;;;;5057459;28;20526;-70
2022/05/09 03:09:04;;;;;;;351.80;89.67;;;;;;;;;;5058096;28;20472;-70
2022/05/09 03:11:32;;;;;;;358.50;92.20;;;;;;;;;;5056913;28;20464;-71
2022/05/09 03:14:00;;;;;;;355.30;90.77;;;;;;;;;;5057619;28;20531;-70
2022/05/09 03:16:29;;;;;;;359.70;93.07;;;;;;;;;;5057266;28;20882;-70
2022/05/09 03:18:57;;;;;;;352.80;87.73;;;;;;;;;;5057576;28;20683;-70
2022/05/09 03:21:25;;;;;;;357.40;92.60;;;;;;;;;;5056992;28;20472;-70
2022/05/09 03:23:53;;;;;;;360.17;88.60;;;;;;;;;;5056259;28;20528;-70
2022/05/09 03:26:20;;;;;;;350.83;85.27;;;;;;;;;;5058166;28;20796;-70
2022/05/09 03:28:48;;;;;;;358.33;93.00;;;;;;;;;;5056776;28;20484;-70
2022/05/09 03:31:16;;;;;;;357.27;90.87;;;;;;;;;;5057422;28;20462;-70
2022/05/09 03:33:45;;;;;;;360.30;88.53;;;;;;;;;;5058712;28;20469;-70
2022/05/09 03:36:13;;;;;;;357.40;88.07;;;;;;;;;;5057214;28;20861;-70
2022/05/09 03:38:41;;;;;;;368.03;99.63;;;;;;;;;;5057431;28;20470;-70
2022/05/09 03:41:09;;;;;;;356.37;89.27;;;;;;;;;;5057196;28;20468;-70
2022/05/09 03:43:37;;;;;;;360.57;89.87;;;;;;;;;;5057354;28;20566;-69
2022/05/09 03:46:05;;;;;;;341.27;86.97;;;;;;;;;;5058367;28;20468;-70
2022/05/09 03:48:33;;;;;;;343.60;84.13;;;;;;;;;;5057997;28;20944;-71
2022/05/09 03:51:02;;;;;;;360.43;89.87;;;;;;;;;;5058151;28;20824;-71
2022/05/09 03:53:30;;;;;;;356.57;89.67;;;;;;;;;;5057834;28;20476;-70
2022/05/09 03:55:58;;;;;;;350.10;88.07;;;;;;;;;;5056942;28;20870;-71
2022/05/09 03:58:26;;;;;;;353.63;108.53;;;;;;;;;;5056877;28;20462;-69
2022/05/09 04:00:54;;;;;;;350.27;86.70;;;;;;;;;;5054610;28;20465;-70
2022/05/09 04:03:22;;;;;;;365.37;89.70;;;;;;;;;;5044958;28;20486;-71
2022/05/09 04:05:50;;;;;;;350.07;86.60;;;;;;;;;;5057085;28;20540;-70
2022/05/09 04:08:21;;;;;;;354.17;86.57;;;;;;;;;;5044732;28;20454;-71
2022/05/09 04:10:50;;;;;;;352.93;90.77;;;;;;;;;;5054304;28;20464;-71
2022/05/09 04:13:18;;;;;;;360.80;92.47;;;;;;;;;;5056261;28;20505;-71
2022/05/09 04:18:32;;;;;;;331.27;86.80;;;;;;;;;;5056044;28;20461;-70
2022/05/09 04:21:00;;;;;;;315.43;86.90;;;;;;;;;;5056086;28;20457;-71
2022/05/09 04:23:30;;;;;;;354.30;87.10;;;;;;;;;;5051510;28;20782;-70
2022/05/09 04:25:57;;;;;;;343.63;86.07;;;;;;;;;;5035521;28;20493;-70
2022/05/09 04:28:25;;;;;;;344.37;84.80;;;;;;;;;;5038428;28;20462;-71
2022/05/09 04:30:53;;;;;;;360.43;90.17;;;;;;;;;;5057013;28;20467;-71
2022/05/09 04:33:22;;;;;;;351.37;90.57;;;;;;;;;;5056681;28;20830;-70
2022/05/09 04:35:50;;;;;;;342.03;86.70;;;;;;;;;;5055903;28;20874;-70
2022/05/09 04:38:21;;;;;;;355.10;92.80;;;;;;;;;;5055501;28;20457;-69
2022/05/09 04:40:51;;;;;;;331.70;87.27;;;;;;;;;;5055844;28;20453;-70
2022/05/09 04:43:20;;;;;;;357.27;93.13;;;;;;;;;;5055365;28;20590;-69
2022/05/09 04:45:48;;;;;;;351.80;87.07;;;;;;;;;;5055344;28;20503;-70
2022/05/09 04:48:17;;;;;;;359.03;90.47;;;;;;;;;;5056104;28;20893;-70
2022/05/09 04:50:45;;;;;;;353.33;89.40;;;;;;;;;;5056098;28;20453;-69
2022/05/09 04:53:13;;;;;;;368.37;97.70;;;;;;;;;;5054938;28;20489;-70
2022/05/09 04:55:41;;;;;;;362.73;94.30;;;;;;;;;;5055968;28;20461;-70
2022/05/09 04:58:12;;;;;;;369.20;92.07;;;;;;;;;;5054443;28;20469;-70
2022/05/09 05:00:40;;;;;;;370.50;109.13;;;;;;;;;;5054276;28;20445;-70
2022/05/09 05:03:08;;;;;;;368.10;106.57;;;;;;;;;;5054083;28;20856;-70
2022/05/09 05:05:36;;;;;;;377.17;112.70;;;;;;;;;;5055290;28;20468;-70
2022/05/09 05:08:04;;;;;;;374.13;114.30;;;;;;;;;;5053942;28;20472;-70
2022/05/09 05:10:32;;;;;;;377.50;114.50;;;;;;;;;;5054244;28;20454;-70
2022/05/09 05:13:02;;;;;;;380.07;118.90;;;;;;;;;;5053818;28;20465;-70
2022/05/09 05:15:32;;;;;;;388.07;118.27;;;;;;;;;;5044396;28;20861;-70
2022/05/09 05:18:00;;;;;;;389.53;123.43;;;;;;;;;;5053202;28;20461;-70
2022/05/09 05:20:27;;;;;;;383.90;121.27;;;;;;;;;;5053394;28;20519;-70
2022/05/09 05:22:55;;;;;;;398.93;132.83;;;;;;;;;;5053795;28;20880;-70
2022/05/09 05:25:24;;;;;;;399.10;143.67;;;;;;;;;;5052741;28;20493;-70
2022/05/09 05:27:53;;;;;;;408.50;157.83;;;;;;;;;;5053232;28;20484;-70
2022/05/09 05:30:21;;;;;;;396.30;158.20;;;;;;;;;;5052830;28;20449;-69
2022/05/09 05:32:51;;;;;;;392.40;135.47;;;;;;;;;;5052348;28;20472;-71
2022/05/09 05:35:20;;;;;;;393.67;139.60;;;;;;;;;;5053207;28;21147;-70
2022/05/09 05:37:48;;;;;;;392.27;134.73;;;;;;;;;;5052967;28;20492;-71
2022/05/09 05:40:17;;;;;;;403.60;146.57;;;;;;;;;;5053157;28;20880;-71
2022/05/09 05:42:45;;;;;;;415.97;147.33;;;;;;;;;;5052690;28;20518;-71
2022/05/09 05:45:14;;;;;;;393.43;145.80;;;;;;;;;;5052376;28;20477;-70
2022/05/09 05:47:42;;;;;;;401.37;141.60;;;;;;;;;;5053086;28;20468;-70
2022/05/09 05:50:13;;;;;;;401.47;151.33;;;;;;;;;;5050799;28;20532;-71
2022/05/09 05:52:41;;;;;;;404.27;154.57;;;;;;;;;;5053109;28;20488;-71
2022/05/09 05:55:10;;;;;;;407.93;151.87;;;;;;;;;;5052768;28;20519;-71
2022/05/09 05:57:40;;;;;;;412.77;177.73;;;;;;;;;;5052993;28;20457;-71
2022/05/09 06:00:12;;;;;;;412.80;172.73;;;;;;;;;;5050681;28;20457;-72
2022/05/09 06:02:41;;;;;;;416.70;165.30;;;;;;;;;;5048231;28;20461;-71
2022/05/09 06:05:10;;;;;;;409.03;157.47;;;;;;;;;;5052989;28;20489;-72
2022/05/09 06:07:40;;;;;;;400.13;151.30;;;;;;;;;;5053627;28;20468;-71
2022/05/09 06:10:09;;;;;;;401.47;142.60;;;;;;;;;;5052231;28;20457;-71
2022/05/09 06:12:41;;;;;;;393.17;148.07;;;;;;;;;;5052041;28;20462;-71
2022/05/09 06:17:56;;;;;;;400.83;151.97;;;;;;;;;;5052472;28;20483;-71
2022/05/09 06:20:24;;;;;;;388.57;133.10;;;;;;;;;;5052642;28;20536;-71
2022/05/09 06:22:56;;;;;;;392.80;133.33;;;;;;;;;;5050681;28;20462;-73
2022/05/09 06:25:25;;;;;;;403.07;140.80;;;;;;;;;;5052649;28;20481;-71
2022/05/09 06:28:01;;;;;;;387.40;132.67;;;;;;;;;;5059207;28;20461;-70
2022/05/09 06:30:29;;;;;;;399.57;132.90;;;;;;;;;;5057722;28;20448;-73
2022/05/09 06:32:57;;;;;;;384.10;125.03;;;;;;;;;;5057097;28;20461;-71
2022/05/09 06:35:26;;;;;;;388.93;130.27;;;;;;;;;;5056239;28;20465;-71
2022/05/09 06:38:01;;;;;;;388.77;123.13;;;;;;;;;;5063088;28;20886;-70
2022/05/09 06:40:30;;;;;;;385.93;126.13;;;;;;;;;;5062303;28;20485;-71
2022/05/09 06:42:58;;;;;;;390.37;133.03;;;;;;;;;;5056817;28;20943;-71
2022/05/09 06:45:26;;;;;;;392.03;131.27;;;;;;;;;;5056649;28;20509;-71
2022/05/09 06:47:55;;;;;;;384.37;127.17;;;;;;;;;;5057973;28;20511;-72
2022/05/09 06:50:24;;;;;;;390.93;131.10;;;;;;;;;;5055010;28;20449;-70
2022/05/09 06:53:18;;;;;;;377.23;139.70;;;;;;;;;;5055477;28;20691;-71
2022/05/09 06:55:48;;;;;;;386.60;129.70;;;;;;;;;;5057759;28;20520;-70
2022/05/09 06:58:18;;;;;;;384.27;128.27;;;;;;;;;;5057837;28;20555;-70
2022/05/09 07:00:46;;;;;;;385.70;130.43;;;;;;;;;;5056468;28;20449;-70
2022/05/09 07:03:15;;;;;;;387.77;135.50;;;;;;;;;;5055991;28;20474;-71
2022/05/09 07:05:48;;;;;;;392.67;129.83;;;;;;;;;;5054110;28;20905;-71
2022/05/09 07:08:17;;;;;;;387.20;131.07;;;;;;;;;;5053240;28;20465;-71
2022/05/09 07:10:59;;;;;;;386.60;131.00;;;;;;;;;;5064029;28;20493;-71
2022/05/09 07:13:36;;;;;;;391.67;140.93;;;;;;;;;;5074772;28;20452;-70
2022/05/09 07:16:05;;;;;;;334.17;141.63;;;;;;;;;;5062989;28;20445;-70
2022/05/09 07:18:38;;;;;;;395.97;138.57;;;;;;;;;;5054400;28;20527;-71
2022/05/09 07:21:06;;;;;;;379.67;155.33;;;;;;;;;;5055667;28;20456;-71
2022/05/09 07:23:35;;;;;;;367.83;153.30;;;;;;;;;;5056082;28;20537;-70
2022/05/09 07:26:04;;;;;;;394.87;152.10;;;;;;;;;;5066657;28;20476;-70
2022/05/09 07:28:34;;;;;;;400.30;155.93;;;;;;;;;;5074621;28;20754;-71
2022/05/09 07:31:03;;;;;;;390.93;138.37;;;;;;;;;;5076216;28;20460;-71
2022/05/09 07:33:31;;;;;;;401.17;149.13;;;;;;;;;;5066967;28;20469;-71
2022/05/09 07:35:59;;;;;;;399.07;156.77;;;;;;;;;;5052386;28;20449;-72
2022/05/09 07:38:27;;;;;;;402.17;156.60;;;;;;;;;;5038374;28;20465;-71
2022/05/09 07:40:56;;;;;;;386.60;141.13;;;;;;;;;;5054060;28;20487;-72
2022/05/09 07:43:25;;;;;;;398.23;152.03;;;;;;;;;;5053758;28;20483;-71
2022/05/09 07:45:55;;;;;;;403.27;161.20;;;;;;;;;;5048764;28;20497;-72
2022/05/09 07:48:23;;;;;;;395.63;154.90;;;;;;;;;;5054558;28;20449;-72
2022/05/09 07:50:51;;;;;;;400.57;169.37;;;;;;;;;;5053712;28;20501;-71
2022/05/09 07:53:21;;;;;;;401.73;152.90;;;;;;;;;;5052841;28;20496;-72
2022/05/09 07:55:49;;;;;;;403.03;159.90;;;;;;;;;;5054990;28;20530;-72
2022/05/09 07:58:17;;;;;;;405.13;175.60;;;;;;;;;;5055050;28;20461;-71
2022/05/09 08:00:46;;;;;;;410.83;180.27;;;;;;;;;;5033729;28;20498;-71
2022/05/09 08:03:17;;;;;;;399.30;157.97;;;;;;;;;;5049420;28;20462;-71
2022/05/09 08:05:46;;;;;;;404.00;168.53;;;;;;;;;;5055913;28;20654;-71
2022/05/09 08:08:16;;;;;;;397.50;164.90;;;;;;;;;;5049390;28;20466;-71
2022/05/09 08:10:44;;;;;;;394.17;190.00;;;;;;;;;;5071507;28;20468;-71
2022/05/09 08:13:13;;;;;;;403.43;193.17;;;;;;;;;;5075691;28;20457;-71
2022/05/09 08:15:43;;;;;;;420.60;204.37;;;;;;;;;;5075926;28;20517;-70
2022/05/09 08:18:12;;;;;;;404.10;202.47;;;;;;;;;;5060654;28;20454;-70
2022/05/09 08:20:45;;;;;;;414.60;205.00;;;;;;;;;;5050772;28;20458;-71
2022/05/09 08:23:18;;;;;;;423.90;212.90;;;;;;;;;;5065605;28;20819;-71
2022/05/09 08:25:49;;;;;;;412.37;206.10;;;;;;;;;;5047274;28;20909;-70
2022/05/09 08:28:20;;;;;;;425.77;218.67;;;;;;;;;;5053267;28;20511;-71
2022/05/09 08:30:51;;;;;;;402.63;165.30;;;;;;;;;;5062083;28;20566;-71
2022/05/09 08:33:29;;;;;;;422.57;214.17;;;;;;;;;;5065898;28;20495;-72
2022/05/09 08:36:02;;;;;;;416.23;209.60;;;;;;;;;;5054274;28;20465;-70
2022/05/09 08:38:30;;;;;;;421.37;210.47;;;;;;;;;;5052682;28;20759;-70
2022/05/09 08:41:06;;;;;;;433.40;237.00;;;;;;;;;;5053308;28;20498;-71
2022/05/09 08:43:44;;;;;;;413.70;194.30;;;;;;;;;;5053261;28;20453;-71
2022/05/09 08:46:18;;;;;;;396.97;238.87;;;;;;;;;;5057492;28;20986;-71
2022/05/09 08:48:52;;;;;;;396.60;231.20;;;;;;;;;;5052578;28;20557;-72
2022/05/09 08:51:31;;;;;;;417.07;235.37;;;;;;;;;;5053194;28;20548;-71
2022/05/09 08:54:04;;;;;;;421.13;226.17;;;;;;;;;;5054268;28;20683;-71
2022/05/09 08:56:33;;;;;;;415.50;215.37;;;;;;;;;;5054980;28;20530;-71
2022/05/09 08:59:03;;;;;;;414.97;213.60;;;;;;;;;;5060552;28;20531;-71
2022/05/09 09:01:37;;;;;;;424.47;253.53;;;;;;;;;;5053085;28;20752;-71
2022/05/09 09:04:10;;;;;;;419.97;213.47;;;;;;;;;;5052354;28;20471;-72
2022/05/09 09:06:53;;;;;;;415.27;208.60;;;;;;;;;;5053434;28;20470;-71
2022/05/09 09:09:32;;;;;;;422.10;228.97;;;;;;;;;;5051465;28;20457;-70
2022/05/09 09:12:03;;;;;;;419.67;224.33;;;;;;;;;;5052720;28;20460;-71
2022/05/09 09:14:41;;;;;;;413.87;198.27;;;;;;;;;;5053549;28;20464;-70
2022/05/09 09:17:16;;;;;;;416.73;201.10;;;;;;;;;;5050784;28;20457;-71
2022/05/09 09:19:55;;;;;;;404.03;235.23;;;;;;;;;;5047708;28;20571;-70
2022/05/09 09:22:35;;;;;;;421.60;232.53;;;;;;;;;;5029962;28;20959;-71
2022/05/09 09:25:25;;;;;;;425.97;247.73;;;;;;;;;;5047686;28;20572;-71
2022/05/09 09:27:58;;;;;;;419.97;277.47;;;;;;;;;;5050342;28;20469;-71
2022/05/09 09:30:29;;;;;;;398.23;253.40;;;;;;;;;;5051029;28;20602;-71
2022/05/09 09:32:58;;;;;;;422.87;238.20;;;;;;;;;;5051452;28;20893;-71
2022/05/09 09:35:38;;;;;;;427.90;259.27;;;;;;;;;;5051572;28;20589;-71
2022/05/09 09:38:10;;;;;;;433.77;263.37;;;;;;;;;;5051638;28;20763;-70
2022/05/09 09:40:44;;;;;;;416.33;286.03;;;;;;;;;;5051278;28;20897;-70
2022/05/09 09:43:13;;;;;;;421.17;266.10;;;;;;;;;;5047423;28;20466;-71
2022/05/09 09:45:44;;;;;;;427.33;266.63;;;;;;;;;;5050710;28;20477;-70
2022/05/09 09:48:16;;;;;;;420.50;293.73;;;;;;;;;;5050335;28;20469;-72
2022/05/09 09:51:01;;;;;;;414.77;230.20;;;;;;;;;;5050674;28;20461;-70
2022/05/09 09:53:37;;;;;;;388.07;324.07;;;;;;;;;;5047480;28;20500;-71
2022/05/09 09:56:35;;;;;;;431.20;310.03;;;;;;;;;;5049890;28;21402;-72
2022/05/09 09:59:18;;;;;;;408.90;320.10;;;;;;;;;;5047460;28;20465;-71
2022/05/09 10:02:01;;;;;;;413.07;318.63;;;;;;;;;;5055176;28;20469;-72
2022/05/09 10:04:32;;;;;;;439.30;287.50;;;;;;;;;;5054316;28;20522;-71
2022/05/09 10:07:03;;;;;;;436.00;296.50;;;;;;;;;;5054456;28;20457;-72
2022/05/09 10:09:35;;;;;;;431.07;282.07;;;;;;;;;;5054983;28;20467;-72
2022/05/09 10:12:16;;;;;;;412.00;328.57;;;;;;;;;;5055095;28;20718;-72
2022/05/09 10:14:44;;;;;;;434.00;296.90;;;;;;;;;;5054640;28;20476;-72
2022/05/09 10:17:20;;;;;;;430.17;300.93;;;;;;;;;;5053046;28;20556;-73
2022/05/09 10:19:48;;;;;;;427.30;342.07;;;;;;;;;;5055398;28;20456;-72
2022/05/09 10:25:13;;;;;;;444.57;329.33;;;;;;;;;;5054678;28;20542;-72
2022/05/09 10:27:42;;;;;;;408.37;364.00;;;;;;;;;;5054199;28;20453;-72
2022/05/09 10:30:30;;;;;;;426.30;381.80;;;;;;;;;;5054179;28;20562;-72
2022/05/09 10:33:06;;;;;;;440.97;323.57;;;;;;;;;;5054474;28;20954;-72
2022/05/09 10:35:40;;;;;;;441.20;339.20;;;;;;;;;;5054105;28;20686;-73
2022/05/09 10:38:13;;;;;;;428.30;281.17;;;;;;;;;;5055806;28;20465;-72
2022/05/09 10:40:43;;;;;;;414.50;358.37;;;;;;;;;;5054863;28;20457;-72
2022/05/09 10:43:14;;;;;;;364.87;326.37;;;;;;;;;;5056646;28;20466;-73
2022/05/09 10:45:48;;;;;;;416.00;373.07;;;;;;;;;;5056531;28;20572;-73
2022/05/09 10:48:29;;;;;;;425.20;302.70;;;;;;;;;;5055980;28;20477;-72
2022/05/09 10:50:58;;;;;;;441.60;331.10;;;;;;;;;;5055230;28;20461;-72
2022/05/09 10:53:31;;;;;;;437.57;345.03;;;;;;;;;;5055924;28;20456;-71
2022/05/09 10:56:04;;;;;;;411.50;289.10;;;;;;;;;;5034712;28;20543;-72
2022/05/09 10:58:36;;;;;;;437.20;346.97;;;;;;;;;;5034438;28;20533;-72
2022/05/09 11:01:17;;;;;;;413.07;368.30;;;;;;;;;;5035773;28;20466;-73
2022/05/09 11:03:52;;;;;;;430.57;303.53;;;;;;;;;;5035459;28;21014;-72
2022/05/09 11:06:27;;;;;;;441.90;349.23;;;;;;;;;;5035760;28;20563;-72
2022/05/09 11:09:04;;;;;;;443.27;314.77;;;;;;;;;;5039864;28;20558;-71
2022/05/09 11:11:36;;;;;;;431.70;305.93;;;;;;;;;;5053935;28;20861;-72
2022/05/09 11:14:17;;;;;;;449.37;389.73;;;;;;;;;;5056415;28;20589;-72
2022/05/09 11:16:51;;;;;;;437.43;348.77;;;;;;;;;;5054845;28;20473;-71
2022/05/09 11:20:12;;;;;;;453.07;372.50;;;;;;;;;;5050970;28;20473;-74
2022/05/09 11:22:45;;;;;;;449.30;400.73;;;;;;;;;;5053607;28;20465;-72
2022/05/09 11:25:23;;;;;;;436.70;392.00;;;;;;;;;;5056259;28;20457;-72
2022/05/09 11:27:57;;;;;;;438.27;390.50;;;;;;;;;;5040377;28;20558;-72
2022/05/09 11:30:33;;;;;;;445.77;345.80;;;;;;;;;;5053156;28;20514;-73
2022/05/09 11:33:10;;;;;;;434.97;325.93;;;;;;;;;;5051933;28;20468;-72
2022/05/09 11:35:45;;;;;;;448.20;370.87;;;;;;;;;;5051802;28;20462;-73
2022/05/09 11:38:27;;;;;;;447.80;380.50;;;;;;;;;;5052782;28;20453;-72
2022/05/09 11:41:03;;;;;;;443.83;396.00;;;;;;;;;;5068738;28;20892;-72
2022/05/09 11:43:39;;;;;;;450.63;373.47;;;;;;;;;;5052236;28;20555;-71
2022/05/09 11:46:24;;;;;;;452.60;369.83;;;;;;;;;;5042836;28;20488;-73
2022/05/09 11:49:04;;;;;;;431.87;334.47;;;;;;;;;;5052859;28;20473;-73
2022/05/09 11:51:37;;;;;;;433.13;387.33;;;;;;;;;;5033875;28;20450;-72
2022/05/09 11:54:08;;;;;;;447.63;341.63;;;;;;;;;;5044554;28;20721;-72
2022/05/09 11:56:44;;;;;;;442.90;362.60;;;;;;;;;;5053169;28;20548;-71
2022/05/09 11:59:21;;;;;;;451.13;367.17;;;;;;;;;;5051945;28;20469;-71
2022/05/09 12:01:59;;;;;;;405.13;362.80;;;;;;;;;;5052406;28;21140;-72
2022/05/09 12:04:40;;;;;;;430.80;383.53;;;;;;;;;;5060990;28;20449;-72
2022/05/09 12:07:39;;;;;;;446.77;399.97;;;;;;;;;;5054281;28;20480;-71
2022/05/09 12:10:27;;;;;;;441.67;344.90;;;;;;;;;;4998453;28;20456;-73
2022/05/09 12:13:00;;;;;;;445.80;360.67;;;;;;;;;;5048402;28;20448;-73
2022/05/09 12:15:46;;;;;;;441.03;337.47;;;;;;;;;;5052746;28;20469;-72
2022/05/09 12:18:25;;;;;;;437.50;327.00;;;;;;;;;;5051396;28;20493;-72
2022/05/09 12:21:11;;;;;;;442.87;347.87;;;;;;;;;;5053168;28;20877;-71
2022/05/09 12:23:52;;;;;;;469.93;419.50;;;;;;;;;;5052791;28;20449;-72
2022/05/09 12:26:29;;;;;;;463.80;413.17;;;;;;;;;;5054156;28;20913;-72
2022/05/09 12:29:08;;;;;;;447.20;368.30;;;;;;;;;;5052615;28;20465;-71
2022/05/09 12:31:46;;;;;;;447.90;369.67;;;;;;;;;;5039790;28;20497;-72
2022/05/09 12:34:19;;;;;;;448.83;386.50;;;;;;;;;;5052346;28;20503;-71
2022/05/09 12:36:54;;;;;;;470.63;421.73;;;;;;;;;;5053328;28;20465;-72
2022/05/09 12:39:28;;;;;;;445.03;372.57;;;;;;;;;;5053407;28;20465;-71
2022/05/09 12:41:57;;;;;;;454.93;400.27;;;;;;;;;;5053796;28;20525;-72
2022/05/09 12:44:27;;;;;;;450.33;397.53;;;;;;;;;;5055029;28;20611;-72
2022/05/09 12:46:56;;;;;;;434.47;370.30;;;;;;;;;;5057550;28;20829;-72
2022/05/09 12:49:27;;;;;;;447.63;394.87;;;;;;;;;;5054902;28;20473;-71
2022/05/09 12:52:00;;;;;;;454.90;393.57;;;;;;;;;;5060035;28;20470;-72
2022/05/09 12:54:33;;;;;;;448.97;394.47;;;;;;;;;;5053164;28;20476;-73
2022/05/09 12:57:03;;;;;;;485.43;435.77;;;;;;;;;;5051393;28;21063;-72
2022/05/09 12:59:45;;;;;;;438.67;350.70;;;;;;;;;;5056340;28;20745;-74
2022/05/09 13:02:20;;;;;;;447.27;393.13;;;;;;;;;;5053995;28;20496;-71
2022/05/09 13:04:50;;;;;;;446.87;382.90;;;;;;;;;;5053721;28;21184;-71
2022/05/09 13:07:21;;;;;;;452.67;399.63;;;;;;;;;;5052013;28;20546;-71
2022/05/09 13:09:50;;;;;;;473.57;422.53;;;;;;;;;;5052745;28;20483;-72
2022/05/09 13:12:23;;;;;;;450.33;372.93;;;;;;;;;;5059204;28;20465;-72
2022/05/09 13:14:56;;;;;;;437.97;348.20;;;;;;;;;;5054980;28;20496;-72
2022/05/09 13:17:33;;;;;;;445.33;380.93;;;;;;;;;;5053601;28;20625;-72
2022/05/09 13:20:03;;;;;;;467.27;417.47;;;;;;;;;;5054288;28;20523;-72
2022/05/09 13:22:34;;;;;;;452.63;393.43;;;;;;;;;;5048488;28;20453;-72
2022/05/09 13:25:09;;;;;;;455.97;404.53;;;;;;;;;;5055732;28;20473;-72
2022/05/09 13:27:38;;;;;;;453.80;396.30;;;;;;;;;;5053693;28;20893;-72
2022/05/09 13:30:08;;;;;;;453.80;382.03;;;;;;;;;;5053917;28;20500;-71
2022/05/09 13:35:25;;;;;;;452.23;397.17;;;;;;;;;;5054949;28;20849;-73
2022/05/09 13:41:11;;;;;;;449.53;399.97;;;;;;;;;;5057797;28;20463;-73
2022/05/09 13:43:53;;;;;;;458.13;405.73;;;;;;;;;;5051774;28;21097;-72
2022/05/09 13:46:23;;;;;;;449.53;379.60;;;;;;;;;;5052190;28;20508;-72
2022/05/09 13:48:52;;;;;;;471.97;420.50;;;;;;;;;;5051397;28;20548;-72
2022/05/09 13:51:25;;;;;;;450.17;395.77;;;;;;;;;;5052163;28;20903;-73
2022/05/09 13:54:02;;;;;;;491.37;441.37;;;;;;;;;;5051904;28;20552;-72
2022/05/09 13:56:32;;;;;;;502.03;450.20;;;;;;;;;;5060974;28;20476;-72
2022/05/09 13:59:06;;;;;;;449.43;379.93;;;;;;;;;;5049486;28;20504;-72
2022/05/09 14:01:41;;;;;;;454.10;391.30;;;;;;;;;;5046964;28;20526;-73
2022/05/09 14:04:09;;;;;;;454.17;402.80;;;;;;;;;;5050890;28;20878;-71
2022/05/09 14:06:38;;;;;;;464.40;415.63;;;;;;;;;;5051013;28;20477;-72
2022/05/09 14:09:10;;;;;;;484.83;434.17;;;;;;;;;;5059202;28;20461;-71
2022/05/09 14:11:39;;;;;;;470.50;427.70;;;;;;;;;;5065309;28;20468;-72
2022/05/09 14:14:12;;;;;;;504.23;460.03;;;;;;;;;;5073311;28;20467;-72
2022/05/09 14:16:45;;;;;;;512.63;460.87;;;;;;;;;;5052668;28;20437;-72
2022/05/09 14:19:26;;;;;;;515.73;465.37;;;;;;;;;;5034967;28;20473;-72
2022/05/09 14:22:05;;;;;;;464.27;416.80;;;;;;;;;;5052683;28;20903;-72
2022/05/09 14:24:37;;;;;;;483.93;432.63;;;;;;;;;;5052463;28;20555;-73
2022/05/09 14:30:10;;;;;;;529.30;484.10;;;;;;;;;;5053001;28;20542;-73
2022/05/09 14:32:50;;;;;;;484.37;438.30;;;;;;;;;;5056120;28;20458;-73
2022/05/09 14:35:33;;;;;;;535.83;485.63;;;;;;;;;;5051999;28;20489;-71
2022/05/09 14:38:01;;;;;;;466.57;415.63;;;;;;;;;;5051612;28;20473;-73
2022/05/09 14:40:31;;;;;;;454.60;394.30;;;;;;;;;;5056164;28;20470;-72
2022/05/09 14:43:03;;;;;;;485.03;433.97;;;;;;;;;;5036101;28;20572;-72